createdAt,value
2018-07-12T00:02:09.057Z,99.90
2018-07-12T00:04:36.346Z,99.90
2018-07-12T00:07:03.648Z,99.90
2018-07-12T00:09:30.927Z,99.90
2018-07-12T00:11:58.214Z,99.90
2018-07-12T00:14:25.500Z,99.90
2018-07-12T00:16:52.809Z,99.90
2018-07-12T00:19:20.069Z,99.90
2018-07-12T00:21:47.333Z,99.90
2018-07-12T00:24:14.630Z,99.90
2018-07-12T00:26:41.901Z,99.90
2018-07-12T00:29:09.198Z,99.90
2018-07-12T00:31:36.474Z,99.90
2018-07-12T00:34:03.798Z,99.90
2018-07-12T00:36:31.097Z,99.90
2018-07-12T00:38:58.384Z,99.90
2018-07-12T00:41:25.668Z,99.90
2018-07-12T00:43:52.947Z,99.90
2018-07-12T00:46:20.240Z,99.90
2018-07-12T00:48:47.523Z,99.90
2018-07-12T00:51:14.822Z,99.90
2018-07-12T00:53:42.089Z,99.90
2018-07-12T00:56:09.356Z,99.90
2018-07-12T00:58:36.657Z,99.90
2018-07-12T01:01:03.955Z,99.90
2018-07-12T01:03:31.256Z,99.90
2018-07-12T01:05:58.525Z,99.90
2018-07-12T01:08:25.803Z,99.90
2018-07-12T01:10:53.108Z,99.90
2018-07-12T01:13:20.384Z,99.90
2018-07-12T01:15:47.688Z,99.90
2018-07-12T01:18:14.962Z,99.90
2018-07-12T01:20:42.244Z,99.90
2018-07-12T01:23:09.542Z,99.90
2018-07-12T01:25:36.856Z,99.90
2018-07-12T01:28:04.311Z,99.90
2018-07-12T01:30:31.580Z,99.90
2018-07-12T01:32:58.856Z,99.90
2018-07-12T01:35:26.149Z,99.90
2018-07-12T01:37:53.444Z,99.90
2018-07-12T01:40:20.792Z,99.90
2018-07-12T01:42:48.081Z,99.90
2018-07-12T01:45:15.349Z,99.90
2018-07-12T01:47:42.622Z,99.90
2018-07-12T01:50:09.925Z,99.90
2018-07-12T01:52:37.206Z,99.90
2018-07-12T01:55:04.509Z,99.90
2018-07-12T01:57:31.798Z,99.90
2018-07-12T01:59:59.087Z,99.90
2018-07-12T02:02:26.394Z,99.90
2018-07-12T02:04:53.709Z,99.90
2018-07-12T02:07:20.993Z,99.90
2018-07-12T02:09:48.281Z,99.90
2018-07-12T02:12:15.585Z,99.90
2018-07-12T02:14:42.871Z,99.90
2018-07-12T02:17:10.239Z,99.90
2018-07-12T02:19:37.551Z,99.90
2018-07-12T02:22:04.866Z,99.90
2018-07-12T02:24:32.163Z,99.90
2018-07-12T02:26:59.478Z,99.90
2018-07-12T02:29:26.763Z,99.90
2018-07-12T02:31:54.055Z,99.90
2018-07-12T02:34:21.652Z,99.90
2018-07-12T02:36:48.971Z,99.90
2018-07-12T02:39:16.262Z,99.90
2018-07-12T02:41:43.584Z,99.90
2018-07-12T02:44:10.891Z,99.90
2018-07-12T02:46:38.186Z,99.90
2018-07-12T02:49:05.492Z,99.90
2018-07-12T02:51:32.791Z,99.90
2018-07-12T02:54:00.258Z,99.90
2018-07-12T02:56:27.547Z,99.90
2018-07-12T02:58:54.842Z,99.90
2018-07-12T03:01:22.146Z,99.90
2018-07-12T03:03:49.434Z,99.90
2018-07-12T03:06:16.742Z,99.90
2018-07-12T03:08:44.043Z,99.90
2018-07-12T03:11:11.349Z,99.90
2018-07-12T03:13:38.759Z,99.90
2018-07-12T03:16:06.146Z,99.90
2018-07-12T03:18:33.467Z,99.90
2018-07-12T03:21:00.753Z,99.90
2018-07-12T03:23:28.079Z,99.90
2018-07-12T03:25:55.398Z,99.90
2018-07-12T03:28:22.675Z,99.90
2018-07-12T03:30:50.071Z,99.90
2018-07-12T03:33:17.365Z,99.90
2018-07-12T03:35:44.654Z,99.90
2018-07-12T03:38:11.963Z,99.90
2018-07-12T03:40:39.283Z,99.90
2018-07-12T03:43:06.572Z,99.90
2018-07-12T03:45:33.922Z,99.90
2018-07-12T03:48:01.236Z,99.90
2018-07-12T03:50:28.527Z,99.90
2018-07-12T03:52:55.835Z,99.90
2018-07-12T03:55:23.122Z,99.90
2018-07-12T03:57:50.437Z,99.90
2018-07-12T04:00:17.727Z,99.90
2018-07-12T04:02:45.023Z,99.90
2018-07-12T04:05:12.340Z,99.90
2018-07-12T04:07:39.651Z,99.90
2018-07-12T04:10:06.971Z,99.90
2018-07-12T04:12:34.262Z,99.90
2018-07-12T04:15:01.580Z,99.90
2018-07-12T04:17:30.341Z,99.90
2018-07-12T04:19:58.846Z,99.90
2018-07-12T04:22:27.124Z,99.90
2018-07-12T04:24:54.426Z,99.90
2018-07-12T04:27:22.327Z,99.90
2018-07-12T04:29:50.862Z,99.90
2018-07-12T04:32:18.286Z,99.90
2018-07-12T04:34:46.239Z,99.90
2018-07-12T04:37:13.528Z,99.90
2018-07-12T04:39:40.850Z,99.90
2018-07-12T04:42:08.138Z,99.90
2018-07-12T04:44:35.434Z,99.90
2018-07-12T04:47:02.754Z,99.90
2018-07-12T04:49:30.044Z,99.90
2018-07-12T04:51:58.178Z,99.90
2018-07-12T04:54:25.779Z,99.90
2018-07-12T04:56:53.067Z,99.90
2018-07-12T04:59:21.015Z,99.90
2018-07-12T05:01:48.798Z,99.90
2018-07-12T05:04:16.110Z,99.90
2018-07-12T05:06:43.569Z,99.90
2018-07-12T05:09:11.702Z,99.90
2018-07-12T05:11:38.986Z,99.90
2018-07-12T05:14:06.458Z,99.90
2018-07-12T05:16:33.754Z,99.90
2018-07-12T05:19:01.041Z,99.90
2018-07-12T05:21:28.353Z,99.90
2018-07-12T05:23:55.659Z,99.90
2018-07-12T05:26:22.942Z,99.90
2018-07-12T05:28:50.302Z,99.90
2018-07-12T05:31:17.587Z,99.90
2018-07-12T05:33:44.904Z,99.90
2018-07-12T05:36:54.597Z,99.90
2018-07-12T05:39:23.100Z,99.90
2018-07-12T05:41:52.011Z,99.90
2018-07-12T05:44:20.398Z,99.90
2018-07-12T05:46:49.222Z,99.90
2018-07-12T05:49:17.767Z,99.90
2018-07-12T05:51:46.816Z,99.90
2018-07-12T05:54:16.096Z,99.90
2018-07-12T05:56:44.619Z,99.90
2018-07-12T05:59:13.191Z,99.90
2018-07-12T06:01:52.890Z,99.90
2018-07-12T06:04:21.310Z,99.90
2018-07-12T06:06:49.692Z,99.90
2018-07-12T06:09:18.094Z,99.90
2018-07-12T06:11:46.502Z,99.90
2018-07-12T06:14:14.941Z,99.90
2018-07-12T06:16:43.567Z,99.90
2018-07-12T06:19:11.972Z,99.90
2018-07-12T06:21:40.373Z,99.90
2018-07-12T06:24:08.798Z,99.90
2018-07-12T06:26:37.203Z,99.90
2018-07-12T06:29:05.650Z,99.90
2018-07-12T06:31:34.061Z,99.90
2018-07-12T06:34:02.667Z,99.90
2018-07-12T06:36:31.070Z,99.90
2018-07-12T06:38:59.470Z,99.90
2018-07-12T06:41:28.106Z,99.90
2018-07-12T06:43:56.487Z,99.90
2018-07-12T06:46:25.136Z,99.90
2018-07-12T06:48:53.587Z,99.90
2018-07-12T06:51:22.012Z,99.90
2018-07-12T06:53:50.411Z,99.90
2018-07-12T06:56:18.819Z,99.90
2018-07-12T06:58:47.236Z,99.90
2018-07-12T07:01:15.659Z,99.90
2018-07-12T07:03:44.059Z,99.90
2018-07-12T07:06:12.487Z,99.90
2018-07-12T07:08:40.916Z,99.90
2018-07-12T07:11:09.415Z,99.90
2018-07-12T07:13:38.004Z,99.90
2018-07-12T07:16:06.838Z,99.90
2018-07-12T07:18:35.272Z,99.90
2018-07-12T07:21:03.754Z,99.90
2018-07-12T07:23:32.184Z,99.90
2018-07-12T07:26:00.608Z,99.90
2018-07-12T07:28:29.012Z,99.90
2018-07-12T07:30:57.420Z,99.90
2018-07-12T07:33:25.858Z,99.90
2018-07-12T07:35:54.271Z,99.90
2018-07-12T07:38:22.690Z,99.90
2018-07-12T07:40:51.294Z,99.90
2018-07-12T07:43:19.799Z,99.90
2018-07-12T07:45:48.147Z,99.90
2018-07-12T07:48:16.714Z,99.90
2018-07-12T07:53:13.197Z,99.90
2018-07-12T07:55:41.607Z,99.90
2018-07-12T07:58:10.059Z,99.90
2018-07-12T08:00:38.603Z,99.90
2018-07-12T08:03:06.997Z,99.90
2018-07-12T08:05:35.410Z,99.90
2018-07-12T08:08:03.902Z,99.90
2018-07-12T08:10:32.307Z,99.90
2018-07-12T08:13:00.699Z,99.90
2018-07-12T08:15:29.183Z,99.90
2018-07-12T08:17:57.590Z,99.90
2018-07-12T08:20:26.028Z,99.90
2018-07-12T08:22:54.603Z,99.90
2018-07-12T08:25:23.026Z,99.90
2018-07-12T08:28:02.600Z,99.90
2018-07-12T08:30:31.018Z,99.90
2018-07-12T08:32:59.455Z,99.90
2018-07-12T08:35:27.926Z,99.90
2018-07-12T08:37:56.351Z,99.90
2018-07-12T08:40:24.835Z,99.90
2018-07-12T08:45:21.356Z,99.90
2018-07-12T08:47:49.754Z,99.90
2018-07-12T08:50:18.162Z,99.90
2018-07-12T08:55:14.802Z,99.90
2018-07-12T08:57:43.187Z,99.90
2018-07-12T09:00:11.708Z,99.90
2018-07-12T09:02:40.166Z,99.90
2018-07-12T09:05:08.538Z,99.90
2018-07-12T09:07:37.119Z,99.90
2018-07-12T09:10:05.581Z,99.90
2018-07-12T09:12:34.023Z,99.90
2018-07-12T09:15:02.644Z,99.90
2018-07-12T09:17:31.082Z,99.90
2018-07-12T09:19:59.498Z,99.90
2018-07-12T09:22:28.020Z,99.90
2018-07-12T09:24:56.412Z,99.90
2018-07-12T09:27:24.815Z,99.90
2018-07-12T09:29:53.254Z,99.90
2018-07-12T09:32:21.643Z,99.90
2018-07-12T09:34:50.082Z,99.90
2018-07-12T09:37:18.483Z,99.90
2018-07-12T09:39:46.927Z,99.90
2018-07-12T09:42:15.285Z,99.90
2018-07-12T09:44:43.708Z,99.90
2018-07-12T09:47:12.135Z,99.90
2018-07-12T09:49:40.610Z,99.90
2018-07-12T09:52:14.362Z,99.90
2018-07-12T09:54:42.923Z,99.90
2018-07-12T09:58:22.279Z,99.90
2018-07-12T10:00:55.978Z,99.90
2018-07-12T10:03:27.738Z,99.90
2018-07-12T10:05:57.543Z,99.90
2018-07-12T10:08:31.303Z,99.90
2018-07-12T10:11:04.998Z,99.90
2018-07-12T10:13:38.675Z,99.90
2018-07-12T10:16:12.326Z,99.90
2018-07-12T10:18:40.741Z,99.90
2018-07-12T10:21:09.155Z,99.90
2018-07-12T10:23:37.585Z,99.90
2018-07-12T10:26:06.116Z,99.90
2018-07-12T10:28:34.507Z,99.90
2018-07-12T10:31:02.909Z,99.90
2018-07-12T10:33:31.294Z,99.90
2018-07-12T10:35:59.719Z,99.30
2018-07-12T10:38:28.119Z,99.00
2018-07-12T10:40:56.503Z,99.40
2018-07-12T10:43:24.923Z,99.80
2018-07-12T10:45:53.356Z,99.90
2018-07-12T10:48:21.767Z,99.90
2018-07-12T10:50:50.182Z,99.90
2018-07-12T10:53:18.606Z,99.90
2018-07-12T10:55:47.015Z,99.90
2018-07-12T10:58:15.419Z,99.90
2018-07-12T11:00:43.883Z,99.90
2018-07-12T11:03:12.266Z,99.90
2018-07-12T11:05:40.691Z,99.90
2018-07-12T11:08:09.110Z,99.90
2018-07-12T11:10:37.533Z,99.90
2018-07-12T11:13:20.293Z,99.90
2018-07-12T11:15:48.766Z,99.90
2018-07-12T11:18:17.150Z,99.90
2018-07-12T11:20:45.568Z,99.90
2018-07-12T11:23:13.951Z,99.90
2018-07-12T11:25:42.375Z,99.90
2018-07-12T11:28:10.798Z,99.90
2018-07-12T11:30:39.203Z,99.90
2018-07-12T11:33:49.386Z,99.90
2018-07-12T11:36:18.080Z,99.90
2018-07-12T11:38:46.850Z,99.90
2018-07-12T11:41:15.571Z,99.90
2018-07-12T11:43:44.035Z,99.90
2018-07-12T11:46:13.765Z,99.90
2018-07-12T11:48:43.002Z,99.90
2018-07-12T11:51:11.495Z,99.90
2018-07-12T11:53:39.928Z,99.80
2018-07-12T11:56:08.538Z,99.90
2018-07-12T11:58:36.944Z,99.90
2018-07-12T12:01:05.407Z,99.90
2018-07-12T12:03:34.039Z,99.90
2018-07-12T12:06:02.465Z,99.90
2018-07-12T12:08:30.879Z,99.90
2018-07-12T12:10:59.287Z,99.90
2018-07-12T12:13:27.693Z,99.90
2018-07-12T12:15:56.098Z,99.90
2018-07-12T12:18:24.519Z,99.40
2018-07-12T12:20:52.914Z,99.60
2018-07-12T12:23:21.298Z,99.90
2018-07-12T12:25:49.869Z,99.90
2018-07-12T12:28:18.284Z,99.90
2018-07-12T12:30:46.700Z,99.90
2018-07-12T12:33:15.112Z,99.90
2018-07-12T12:35:43.499Z,99.90
2018-07-12T12:38:11.910Z,99.90
2018-07-12T12:40:40.318Z,99.90
2018-07-12T12:43:08.728Z,99.90
2018-07-12T12:45:37.143Z,99.90
2018-07-12T12:48:05.627Z,99.90
2018-07-12T12:50:34.049Z,99.70
2018-07-12T12:53:02.451Z,99.90
2018-07-12T12:55:30.904Z,99.90
2018-07-12T12:57:59.315Z,99.90
2018-07-12T13:00:27.887Z,99.90
2018-07-12T13:02:56.327Z,99.90
2018-07-12T13:05:24.728Z,99.80
2018-07-12T13:07:53.152Z,99.70
2018-07-12T13:10:21.543Z,98.90
2018-07-12T13:12:49.935Z,99.30
2018-07-12T13:15:18.346Z,99.30
2018-07-12T13:17:46.750Z,99.20
2018-07-12T13:20:15.179Z,98.80
2018-07-12T13:22:43.600Z,99.00
2018-07-12T13:25:12.008Z,99.30
2018-07-12T13:27:40.430Z,98.90
2018-07-12T13:30:08.890Z,99.30
2018-07-12T13:32:37.299Z,99.40
2018-07-12T13:37:33.843Z,99.40
2018-07-12T13:40:02.307Z,99.10
2018-07-12T13:42:30.715Z,99.20
2018-07-12T13:44:59.130Z,98.90
2018-07-12T13:47:27.539Z,98.60
2018-07-12T13:49:55.947Z,98.50
2018-07-12T13:52:24.383Z,97.60
2018-07-12T13:54:52.783Z,98.00
2018-07-12T13:57:21.210Z,98.80
2018-07-12T13:59:49.619Z,98.40
2018-07-12T14:02:18.035Z,98.30
2018-07-12T14:04:46.471Z,98.40
2018-07-12T14:07:14.879Z,98.30
2018-07-12T14:09:43.460Z,98.10
2018-07-12T14:12:11.853Z,98.70
2018-07-12T14:14:40.275Z,98.90
2018-07-12T14:17:08.702Z,99.60
2018-07-12T14:19:37.097Z,99.20
2018-07-12T14:22:05.575Z,99.20
2018-07-12T14:24:34.017Z,99.00
2018-07-12T14:29:30.562Z,98.50
2018-07-12T14:31:58.946Z,98.90
2018-07-12T14:34:27.550Z,98.20
2018-07-12T14:36:55.938Z,98.20
2018-07-12T14:39:24.371Z,98.10
2018-07-12T14:41:52.815Z,97.90
2018-07-12T14:44:21.219Z,97.70
2018-07-12T14:46:49.624Z,97.80
2018-07-12T14:49:18.048Z,98.20
2018-07-12T14:51:46.451Z,98.20
2018-07-12T14:54:15.341Z,98.20
2018-07-12T14:56:43.751Z,97.70
2018-07-12T14:59:12.170Z,97.60
2018-07-12T15:01:40.591Z,97.70
2018-07-12T15:04:09.213Z,97.80
2018-07-12T15:06:37.639Z,97.70
2018-07-12T15:09:07.419Z,97.20
2018-07-12T15:11:36.635Z,97.20
2018-07-12T15:14:05.075Z,97.50
2018-07-12T15:16:33.505Z,97.20
2018-07-12T15:19:02.051Z,97.20
2018-07-12T15:21:30.490Z,97.00
2018-07-12T15:23:59.063Z,97.10
2018-07-12T15:26:27.463Z,97.20
2018-07-12T15:28:55.858Z,97.10
2018-07-12T15:31:24.488Z,97.20
2018-07-12T15:33:52.896Z,96.90
2018-07-12T15:36:21.416Z,96.70
2018-07-12T15:38:50.010Z,97.00
2018-07-12T15:41:18.422Z,97.00
2018-07-12T15:43:46.841Z,97.20
2018-07-12T15:46:15.243Z,97.00
2018-07-12T15:48:43.663Z,97.20
2018-07-12T15:51:12.094Z,97.20
2018-07-12T15:53:40.555Z,97.40
2018-07-12T15:56:08.947Z,97.10
2018-07-12T15:58:37.347Z,96.90
2018-07-12T16:01:05.822Z,97.00
2018-07-12T16:03:34.249Z,96.90
2018-07-12T16:06:02.671Z,97.00
2018-07-12T16:08:31.127Z,97.00
2018-07-12T16:10:59.514Z,97.10
2018-07-12T16:13:27.979Z,97.10
2018-07-12T16:15:56.367Z,96.70
2018-07-12T16:18:24.787Z,96.40
2018-07-12T16:20:53.208Z,97.00
2018-07-12T16:23:21.624Z,97.20
2018-07-12T16:25:50.028Z,97.40
2018-07-12T16:28:18.571Z,97.10
2018-07-12T16:30:46.986Z,96.90
2018-07-12T16:35:43.666Z,97.00
2018-07-12T16:38:12.099Z,96.50
2018-07-12T16:40:40.515Z,96.10
2018-07-12T16:43:08.951Z,96.00
2018-07-12T16:45:37.379Z,96.40
2018-07-12T16:48:05.816Z,96.60
2018-07-12T16:50:34.227Z,96.60
2018-07-12T16:55:30.744Z,96.50
2018-07-12T16:57:59.171Z,96.20
2018-07-12T17:00:27.587Z,96.70
2018-07-12T17:02:56.110Z,96.40
2018-07-12T17:05:24.585Z,96.80
2018-07-12T17:07:53.124Z,96.90
2018-07-12T17:10:21.682Z,97.00
2018-07-12T17:12:50.146Z,96.80
2018-07-12T17:15:18.554Z,97.00
2018-07-12T17:17:46.970Z,96.50
2018-07-12T17:20:15.380Z,96.60
2018-07-12T17:22:43.803Z,96.40
2018-07-12T17:25:12.199Z,96.30
2018-07-12T17:27:40.622Z,96.50
2018-07-12T17:30:09.548Z,96.30
2018-07-12T17:32:37.979Z,96.60
2018-07-12T17:35:06.387Z,96.70
2018-07-12T17:37:34.938Z,96.60
2018-07-12T17:40:03.438Z,96.30
2018-07-12T17:42:31.864Z,96.10
2018-07-12T17:45:00.307Z,96.00
2018-07-12T17:47:28.828Z,95.90
2018-07-12T17:49:57.299Z,95.90
2018-07-12T17:52:25.726Z,96.10
2018-07-12T17:54:54.126Z,96.30
2018-07-12T17:57:22.558Z,96.20
2018-07-12T17:59:50.979Z,96.50
2018-07-12T18:02:19.377Z,96.50
2018-07-12T18:04:47.874Z,96.80
2018-07-12T18:07:16.278Z,96.40
2018-07-12T18:09:44.719Z,96.40
2018-07-12T18:12:13.124Z,96.60
2018-07-12T18:14:41.571Z,96.40
2018-07-12T18:17:10.147Z,96.30
2018-07-12T18:19:38.628Z,96.40
2018-07-12T18:22:07.051Z,96.60
2018-07-12T18:24:35.632Z,96.70
2018-07-12T18:27:04.152Z,96.50
2018-07-12T18:29:32.547Z,96.60
2018-07-12T18:32:01.133Z,96.60
2018-07-12T18:34:29.760Z,96.80
2018-07-12T18:37:02.658Z,96.80
2018-07-12T18:39:31.190Z,96.70
2018-07-12T18:41:59.755Z,96.80
2018-07-12T18:44:28.530Z,96.90
2018-07-12T18:46:58.130Z,96.90
2018-07-12T18:49:26.931Z,96.90
2018-07-12T18:51:55.490Z,96.80
2018-07-12T18:54:24.767Z,97.00
2018-07-12T18:56:53.361Z,97.00
2018-07-12T18:59:21.906Z,97.10
2018-07-12T19:01:50.564Z,97.10
2018-07-12T19:04:19.159Z,97.10
2018-07-12T19:06:47.922Z,97.30
2018-07-12T19:09:16.507Z,97.40
2018-07-12T19:11:45.141Z,97.50
2018-07-12T19:14:15.191Z,97.60
2018-07-12T19:16:45.800Z,97.60
2018-07-12T19:19:15.116Z,99.10
2018-07-12T19:21:44.320Z,99.70
2018-07-12T19:24:13.066Z,99.90
2018-07-12T19:26:42.213Z,99.90
2018-07-12T19:29:11.012Z,99.90
2018-07-12T19:31:39.730Z,99.90
2018-07-12T19:34:19.115Z,99.90
2018-07-12T19:36:47.730Z,99.90
2018-07-12T19:39:16.519Z,99.90
2018-07-12T19:41:45.282Z,99.90
2018-07-12T19:44:13.986Z,99.90
2018-07-12T19:46:42.614Z,99.90
2018-07-12T19:49:11.267Z,99.90
2018-07-12T19:51:39.959Z,99.90
2018-07-12T19:54:08.667Z,99.90
2018-07-12T19:56:37.228Z,99.90
2018-07-12T19:59:05.965Z,99.90
2018-07-12T20:01:34.607Z,99.90
2018-07-12T20:04:03.384Z,99.90
2018-07-12T20:06:32.883Z,99.90
2018-07-12T20:09:01.549Z,99.90
2018-07-12T20:11:30.149Z,99.90
2018-07-12T20:13:58.680Z,99.90
2018-07-12T20:16:31.072Z,99.90
2018-07-12T20:18:59.826Z,99.90
2018-07-12T20:21:28.384Z,99.90
2018-07-12T20:23:57.132Z,99.90
2018-07-12T20:26:25.724Z,99.90
2018-07-12T20:28:54.364Z,99.90
2018-07-12T20:31:23.075Z,99.90
2018-07-12T20:33:51.624Z,99.90
2018-07-12T20:36:20.213Z,99.90
2018-07-12T20:38:48.998Z,99.90
2018-07-12T20:41:17.599Z,99.90
2018-07-12T20:43:46.158Z,99.90
2018-07-12T20:46:14.824Z,99.90
2018-07-12T20:48:43.348Z,99.90
2018-07-12T20:51:11.930Z,99.90
2018-07-12T20:53:40.462Z,99.90
2018-07-12T20:56:09.089Z,99.90
2018-07-12T20:58:50.639Z,99.90
2018-07-12T21:01:19.183Z,99.90
2018-07-12T21:03:47.811Z,99.90
2018-07-12T21:06:16.422Z,99.90
2018-07-12T21:08:45.117Z,99.90
2018-07-12T21:11:13.785Z,99.90
2018-07-12T21:13:42.591Z,99.90
2018-07-12T21:16:11.179Z,99.90
2018-07-12T21:18:39.815Z,99.90
2018-07-12T21:21:08.553Z,99.90
2018-07-12T21:23:37.319Z,99.90
2018-07-12T21:26:06.158Z,99.90
2018-07-12T21:28:46.455Z,99.90
2018-07-12T21:31:15.052Z,99.90
2018-07-12T21:33:43.657Z,99.90
2018-07-12T21:36:12.247Z,99.90
2018-07-12T21:38:40.864Z,99.90
2018-07-12T21:41:09.554Z,99.90
2018-07-12T21:43:38.154Z,99.90
2018-07-12T21:46:06.858Z,99.90
2018-07-12T21:48:35.450Z,99.90
2018-07-12T21:51:04.015Z,99.90
2018-07-12T21:53:32.548Z,99.90
2018-07-12T21:56:01.115Z,99.90
2018-07-12T21:58:29.854Z,99.90
2018-07-12T22:00:58.439Z,99.90
2018-07-12T22:03:27.061Z,99.90
2018-07-12T22:05:55.807Z,99.90
2018-07-12T22:08:25.411Z,99.90
2018-07-12T22:10:55.275Z,99.90
2018-07-12T22:13:24.481Z,99.90
2018-07-12T22:16:04.834Z,99.90
2018-07-12T22:18:33.444Z,99.90
2018-07-12T22:21:02.265Z,99.90
2018-07-12T22:23:30.879Z,99.90
2018-07-12T22:25:59.536Z,99.90
2018-07-12T22:28:28.103Z,99.90
2018-07-12T22:30:56.802Z,99.90
2018-07-12T22:33:25.402Z,99.90
2018-07-12T22:35:53.969Z,99.90
2018-07-12T22:38:22.577Z,99.90
2018-07-12T22:40:51.343Z,99.90
2018-07-12T22:43:19.963Z,99.90
2018-07-12T22:45:48.478Z,99.90
2018-07-12T22:48:17.277Z,99.90
2018-07-12T22:50:45.691Z,99.90
2018-07-12T22:55:42.155Z,99.90
2018-07-12T22:58:10.551Z,99.90
2018-07-12T23:00:39.128Z,99.90
2018-07-12T23:03:07.527Z,99.90
2018-07-12T23:05:35.900Z,99.90
2018-07-12T23:08:04.327Z,99.90
2018-07-12T23:10:32.739Z,99.90
2018-07-12T23:13:01.152Z,99.90
2018-07-12T23:15:29.526Z,99.90
2018-07-12T23:17:57.910Z,99.90
2018-07-12T23:20:26.309Z,99.90
2018-07-12T23:22:54.710Z,99.90
2018-07-12T23:25:23.171Z,99.90
2018-07-12T23:27:51.535Z,99.90
2018-07-12T23:30:19.939Z,99.90
2018-07-12T23:32:48.319Z,99.90
2018-07-12T23:35:16.711Z,99.90
2018-07-12T23:37:45.119Z,99.90
2018-07-12T23:40:13.507Z,99.90
2018-07-12T23:42:41.900Z,99.90
2018-07-12T23:45:10.303Z,99.90
2018-07-12T23:47:38.899Z,99.90
2018-07-12T23:50:07.287Z,99.90
2018-07-12T23:52:35.687Z,99.90
2018-07-12T23:55:04.286Z,99.90
2018-07-12T23:57:32.678Z,99.90
